sensor_id;sensor_type;location;lat;lon;timestamp;P1;durP1;ratioP1;P2;durP2;ratioP2
54430;SDS011;40342;52.998;5.862;2023-01-05T00:01:50;36.20;;;6.65;;
54430;SDS011;40342;52.998;5.862;2023-01-05T00:04:16;28.63;;;5.63;;
54430;SDS011;40342;52.998;5.862;2023-01-05T00:06:42;29.50;;;5.63;;
54430;SDS011;40342;52.998;5.862;2023-01-05T00:09:13;30.73;;;6.43;;
54430;SDS011;40342;52.998;5.862;2023-01-05T00:11:40;32.30;;;5.97;;
54430;SDS011;40342;52.998;5.862;2023-01-05T00:14:26;31.85;;;6.35;;
54430;SDS011;40342;52.998;5.862;2023-01-05T00:17:14;27.15;;;5.38;;
54430;SDS011;40342;52.998;5.862;2023-01-05T00:20:00;33.53;;;6.78;;
54430;SDS011;40342;52.998;5.862;2023-01-05T00:22:46;32.95;;;6.70;;
54430;SDS011;40342;52.998;5.862;2023-01-05T00:25:17;31.60;;;5.60;;
54430;SDS011;40342;52.998;5.862;2023-01-05T00:27:52;30.73;;;6.07;;
54430;SDS011;40342;52.998;5.862;2023-01-05T00:30:19;33.10;;;6.35;;
54430;SDS011;40342;52.998;5.862;2023-01-05T00:32:46;35.65;;;7.75;;
54430;SDS011;40342;52.998;5.862;2023-01-05T00:35:13;37.10;;;7.68;;
54430;SDS011;40342;52.998;5.862;2023-01-05T00:37:39;27.30;;;5.88;;
54430;SDS011;40342;52.998;5.862;2023-01-05T00:40:06;28.42;;;5.60;;
54430;SDS011;40342;52.998;5.862;2023-01-05T00:42:34;31.92;;;6.90;;
54430;SDS011;40342;52.998;5.862;2023-01-05T00:44:59;32.15;;;5.40;;
54430;SDS011;40342;52.998;5.862;2023-01-05T00:47:25;37.28;;;6.25;;
54430;SDS011;40342;52.998;5.862;2023-01-05T00:49:50;34.50;;;6.57;;
54430;SDS011;40342;52.998;5.862;2023-01-05T00:52:16;33.85;;;6.40;;
54430;SDS011;40342;52.998;5.862;2023-01-05T00:54:41;37.47;;;6.90;;
54430;SDS011;40342;52.998;5.862;2023-01-05T00:57:09;33.28;;;5.53;;
54430;SDS011;40342;52.998;5.862;2023-01-05T00:59:36;37.45;;;7.40;;
54430;SDS011;40342;52.998;5.862;2023-01-05T01:02:01;38.05;;;6.93;;
54430;SDS011;40342;52.998;5.862;2023-01-05T01:04:29;33.97;;;5.65;;
54430;SDS011;40342;52.998;5.862;2023-01-05T01:06:55;29.20;;;6.75;;
54430;SDS011;40342;52.998;5.862;2023-01-05T01:09:20;39.60;;;6.80;;
54430;SDS011;40342;52.998;5.862;2023-01-05T01:11:46;40.30;;;6.85;;
54430;SDS011;40342;52.998;5.862;2023-01-05T01:14:12;33.88;;;6.05;;
54430;SDS011;40342;52.998;5.862;2023-01-05T01:16:38;31.48;;;5.97;;
54430;SDS011;40342;52.998;5.862;2023-01-05T01:19:08;30.85;;;6.82;;
54430;SDS011;40342;52.998;5.862;2023-01-05T01:21:41;34.90;;;6.45;;
54430;SDS011;40342;52.998;5.862;2023-01-05T01:24:07;35.92;;;5.93;;
54430;SDS011;40342;52.998;5.862;2023-01-05T01:26:33;32.47;;;6.35;;
54430;SDS011;40342;52.998;5.862;2023-01-05T01:28:59;31.35;;;5.90;;
54430;SDS011;40342;52.998;5.862;2023-01-05T01:31:24;34.42;;;6.18;;
54430;SDS011;40342;52.998;5.862;2023-01-05T01:33:50;34.65;;;6.68;;
54430;SDS011;40342;52.998;5.862;2023-01-05T01:36:15;34.80;;;6.32;;
54430;SDS011;40342;52.998;5.862;2023-01-05T01:38:41;32.33;;;6.38;;
54430;SDS011;40342;52.998;5.862;2023-01-05T01:41:07;31.05;;;6.63;;
54430;SDS011;40342;52.998;5.862;2023-01-05T01:43:43;38.88;;;7.07;;
54430;SDS011;40342;52.998;5.862;2023-01-05T01:46:14;27.40;;;5.22;;
54430;SDS011;40342;52.998;5.862;2023-01-05T01:49:00;35.33;;;6.85;;
54430;SDS011;40342;52.998;5.862;2023-01-05T01:51:33;32.63;;;5.47;;
54430;SDS011;40342;52.998;5.862;2023-01-05T01:54:06;27.35;;;5.45;;
54430;SDS011;40342;52.998;5.862;2023-01-05T01:56:35;32.95;;;6.85;;
54430;SDS011;40342;52.998;5.862;2023-01-05T01:59:04;33.55;;;6.88;;
54430;SDS011;40342;52.998;5.862;2023-01-05T02:01:30;31.98;;;6.95;;
54430;SDS011;40342;52.998;5.862;2023-01-05T02:03:56;29.10;;;6.50;;
54430;SDS011;40342;52.998;5.862;2023-01-05T02:06:24;30.13;;;6.18;;
54430;SDS011;40342;52.998;5.862;2023-01-05T02:08:50;32.25;;;5.40;;
54430;SDS011;40342;52.998;5.862;2023-01-05T02:14:11;34.45;;;5.85;;
54430;SDS011;40342;52.998;5.862;2023-01-05T02:17:03;35.42;;;6.43;;
54430;SDS011;40342;52.998;5.862;2023-01-05T02:23:00;33.03;;;6.13;;
54430;SDS011;40342;52.998;5.862;2023-01-05T02:25:52;41.55;;;6.80;;
54430;SDS011;40342;52.998;5.862;2023-01-05T02:36:37;43.78;;;8.02;;
54430;SDS011;40342;52.998;5.862;2023-01-05T02:39:30;32.10;;;6.13;;
54430;SDS011;40342;52.998;5.862;2023-01-05T02:42:03;31.33;;;6.47;;
54430;SDS011;40342;52.998;5.862;2023-01-05T02:44:34;36.08;;;6.63;;
54430;SDS011;40342;52.998;5.862;2023-01-05T02:47:04;30.52;;;6.57;;
54430;SDS011;40342;52.998;5.862;2023-01-05T02:49:33;37.20;;;6.30;;
54430;SDS011;40342;52.998;5.862;2023-01-05T02:52:02;35.97;;;6.50;;
54430;SDS011;40342;52.998;5.862;2023-01-05T02:54:37;39.60;;;6.65;;
54430;SDS011;40342;52.998;5.862;2023-01-05T02:57:19;36.63;;;6.57;;
54430;SDS011;40342;52.998;5.862;2023-01-05T03:00:11;39.63;;;6.72;;
54430;SDS011;40342;52.998;5.862;2023-01-05T03:02:43;40.75;;;7.80;;
54430;SDS011;40342;52.998;5.862;2023-01-05T03:05:14;41.45;;;6.00;;
54430;SDS011;40342;52.998;5.862;2023-01-05T03:07:44;33.47;;;5.72;;
54430;SDS011;40342;52.998;5.862;2023-01-05T03:10:12;39.85;;;6.75;;
54430;SDS011;40342;52.998;5.862;2023-01-05T03:12:57;43.15;;;7.07;;
54430;SDS011;40342;52.998;5.862;2023-01-05T03:15:44;41.53;;;7.10;;
54430;SDS011;40342;52.998;5.862;2023-01-05T03:18:16;33.80;;;7.05;;
54430;SDS011;40342;52.998;5.862;2023-01-05T03:20:45;30.10;;;6.15;;
54430;SDS011;40342;52.998;5.862;2023-01-05T03:23:14;37.22;;;7.00;;
54430;SDS011;40342;52.998;5.862;2023-01-05T03:26:01;29.77;;;7.18;;
54430;SDS011;40342;52.998;5.862;2023-01-05T03:28:53;31.67;;;5.82;;
54430;SDS011;40342;52.998;5.862;2023-01-05T03:31:43;37.92;;;6.55;;
54430;SDS011;40342;52.998;5.862;2023-01-05T03:34:50;39.78;;;7.30;;
54430;SDS011;40342;52.998;5.862;2023-01-05T03:37:52;37.45;;;6.47;;
54430;SDS011;40342;52.998;5.862;2023-01-05T03:40:23;40.47;;;6.32;;
54430;SDS011;40342;52.998;5.862;2023-01-05T03:42:54;35.97;;;6.50;;
54430;SDS011;40342;52.998;5.862;2023-01-05T03:45:20;39.65;;;6.05;;
54430;SDS011;40342;52.998;5.862;2023-01-05T03:47:48;43.55;;;7.20;;
54430;SDS011;40342;52.998;5.862;2023-01-05T03:50:14;38.38;;;6.57;;
54430;SDS011;40342;52.998;5.862;2023-01-05T03:52:40;42.80;;;8.27;;
54430;SDS011;40342;52.998;5.862;2023-01-05T03:55:05;32.25;;;6.22;;
54430;SDS011;40342;52.998;5.862;2023-01-05T03:57:31;34.65;;;6.78;;
54430;SDS011;40342;52.998;5.862;2023-01-05T03:59:57;28.42;;;5.13;;
54430;SDS011;40342;52.998;5.862;2023-01-05T04:02:22;32.92;;;5.90;;
54430;SDS011;40342;52.998;5.862;2023-01-05T04:04:48;32.70;;;6.38;;
54430;SDS011;40342;52.998;5.862;2023-01-05T04:07:13;32.05;;;5.95;;
54430;SDS011;40342;52.998;5.862;2023-01-05T04:09:39;33.17;;;5.60;;
54430;SDS011;40342;52.998;5.862;2023-01-05T04:12:04;31.65;;;6.30;;
54430;SDS011;40342;52.998;5.862;2023-01-05T04:14:30;27.60;;;4.72;;
54430;SDS011;40342;52.998;5.862;2023-01-05T04:16:56;35.65;;;6.22;;
54430;SDS011;40342;52.998;5.862;2023-01-05T04:19:21;25.75;;;5.30;;
54430;SDS011;40342;52.998;5.862;2023-01-05T04:21:47;27.98;;;5.13;;
54430;SDS011;40342;52.998;5.862;2023-01-05T04:24:12;33.88;;;5.85;;
54430;SDS011;40342;52.998;5.862;2023-01-05T04:26:38;31.63;;;6.03;;
54430;SDS011;40342;52.998;5.862;2023-01-05T04:29:04;29.73;;;5.00;;
54430;SDS011;40342;52.998;5.862;2023-01-05T04:31:30;25.48;;;4.78;;
54430;SDS011;40342;52.998;5.862;2023-01-05T04:33:56;29.42;;;5.32;;
54430;SDS011;40342;52.998;5.862;2023-01-05T04:36:21;30.55;;;5.68;;
54430;SDS011;40342;52.998;5.862;2023-01-05T04:38:47;28.10;;;5.25;;
54430;SDS011;40342;52.998;5.862;2023-01-05T04:41:13;30.50;;;5.60;;
54430;SDS011;40342;52.998;5.862;2023-01-05T04:43:38;25.23;;;5.15;;
54430;SDS011;40342;52.998;5.862;2023-01-05T04:46:05;31.40;;;6.00;;
54430;SDS011;40342;52.998;5.862;2023-01-05T04:48:31;25.80;;;5.25;;
54430;SDS011;40342;52.998;5.862;2023-01-05T04:50:57;29.23;;;6.40;;
54430;SDS011;40342;52.998;5.862;2023-01-05T04:53:23;31.98;;;5.97;;
54430;SDS011;40342;52.998;5.862;2023-01-05T04:55:49;37.65;;;5.97;;
54430;SDS011;40342;52.998;5.862;2023-01-05T04:58:15;30.83;;;5.63;;
54430;SDS011;40342;52.998;5.862;2023-01-05T05:00:41;34.35;;;7.07;;
54430;SDS011;40342;52.998;5.862;2023-01-05T05:03:06;27.27;;;5.10;;
54430;SDS011;40342;52.998;5.862;2023-01-05T05:05:32;26.90;;;5.03;;
54430;SDS011;40342;52.998;5.862;2023-01-05T05:07:58;34.05;;;6.00;;
54430;SDS011;40342;52.998;5.862;2023-01-05T05:10:24;29.30;;;5.43;;
54430;SDS011;40342;52.998;5.862;2023-01-05T05:12:49;32.80;;;6.50;;
54430;SDS011;40342;52.998;5.862;2023-01-05T05:15:15;27.30;;;6.18;;
54430;SDS011;40342;52.998;5.862;2023-01-05T05:17:41;28.58;;;5.85;;
54430;SDS011;40342;52.998;5.862;2023-01-05T05:20:06;28.63;;;5.95;;
54430;SDS011;40342;52.998;5.862;2023-01-05T05:22:32;32.28;;;6.70;;
54430;SDS011;40342;52.998;5.862;2023-01-05T05:24:58;38.40;;;6.10;;
54430;SDS011;40342;52.998;5.862;2023-01-05T05:27:24;28.88;;;6.63;;
54430;SDS011;40342;52.998;5.862;2023-01-05T05:29:49;30.38;;;5.55;;
54430;SDS011;40342;52.998;5.862;2023-01-05T05:32:15;28.38;;;5.28;;
54430;SDS011;40342;52.998;5.862;2023-01-05T05:34:40;29.15;;;5.65;;
54430;SDS011;40342;52.998;5.862;2023-01-05T05:37:06;32.35;;;6.43;;
54430;SDS011;40342;52.998;5.862;2023-01-05T05:39:32;29.42;;;5.15;;
54430;SDS011;40342;52.998;5.862;2023-01-05T05:41:57;32.30;;;6.57;;
54430;SDS011;40342;52.998;5.862;2023-01-05T05:44:23;31.17;;;5.22;;
54430;SDS011;40342;52.998;5.862;2023-01-05T05:46:48;34.15;;;6.65;;
54430;SDS011;40342;52.998;5.862;2023-01-05T05:49:14;29.83;;;4.93;;
54430;SDS011;40342;52.998;5.862;2023-01-05T05:51:40;25.95;;;5.43;;
54430;SDS011;40342;52.998;5.862;2023-01-05T05:54:05;27.27;;;5.28;;
54430;SDS011;40342;52.998;5.862;2023-01-05T05:56:31;33.00;;;5.38;;
54430;SDS011;40342;52.998;5.862;2023-01-05T05:58:56;29.67;;;5.63;;
54430;SDS011;40342;52.998;5.862;2023-01-05T06:01:22;29.60;;;5.70;;
54430;SDS011;40342;52.998;5.862;2023-01-05T06:03:47;27.10;;;4.88;;
54430;SDS011;40342;52.998;5.862;2023-01-05T06:06:13;30.98;;;5.32;;
54430;SDS011;40342;52.998;5.862;2023-01-05T06:08:38;29.08;;;6.20;;
54430;SDS011;40342;52.998;5.862;2023-01-05T06:11:04;27.77;;;4.65;;
54430;SDS011;40342;52.998;5.862;2023-01-05T06:13:30;30.02;;;4.70;;
54430;SDS011;40342;52.998;5.862;2023-01-05T06:15:55;30.25;;;5.55;;
54430;SDS011;40342;52.998;5.862;2023-01-05T06:18:21;33.95;;;5.25;;
54430;SDS011;40342;52.998;5.862;2023-01-05T06:20:47;30.75;;;5.53;;
54430;SDS011;40342;52.998;5.862;2023-01-05T06:23:12;25.92;;;5.07;;
54430;SDS011;40342;52.998;5.862;2023-01-05T06:25:38;26.40;;;4.53;;
54430;SDS011;40342;52.998;5.862;2023-01-05T06:28:04;25.98;;;5.88;;
54430;SDS011;40342;52.998;5.862;2023-01-05T06:30:33;23.85;;;4.43;;
54430;SDS011;40342;52.998;5.862;2023-01-05T06:32:58;28.92;;;5.78;;
54430;SDS011;40342;52.998;5.862;2023-01-05T06:35:24;25.30;;;5.60;;
54430;SDS011;40342;52.998;5.862;2023-01-05T06:37:50;28.42;;;5.00;;
54430;SDS011;40342;52.998;5.862;2023-01-05T06:40:15;30.90;;;6.70;;
54430;SDS011;40342;52.998;5.862;2023-01-05T06:42:41;28.13;;;5.05;;
54430;SDS011;40342;52.998;5.862;2023-01-05T06:45:08;30.17;;;4.85;;
54430;SDS011;40342;52.998;5.862;2023-01-05T06:47:37;28.30;;;5.35;;
54430;SDS011;40342;52.998;5.862;2023-01-05T06:50:03;25.38;;;4.97;;
54430;SDS011;40342;52.998;5.862;2023-01-05T06:52:29;34.08;;;5.63;;
54430;SDS011;40342;52.998;5.862;2023-01-05T06:54:54;26.88;;;5.82;;
54430;SDS011;40342;52.998;5.862;2023-01-05T06:57:20;27.27;;;5.18;;
54430;SDS011;40342;52.998;5.862;2023-01-05T06:59:45;25.77;;;4.93;;
54430;SDS011;40342;52.998;5.862;2023-01-05T07:02:12;20.45;;;4.15;;
54430;SDS011;40342;52.998;5.862;2023-01-05T07:04:38;22.50;;;4.63;;
54430;SDS011;40342;52.998;5.862;2023-01-05T07:07:04;19.02;;;4.18;;
54430;SDS011;40342;52.998;5.862;2023-01-05T07:09:29;24.20;;;4.38;;
54430;SDS011;40342;52.998;5.862;2023-01-05T07:11:55;26.13;;;5.03;;
54430;SDS011;40342;52.998;5.862;2023-01-05T07:14:20;35.40;;;5.75;;
54430;SDS011;40342;52.998;5.862;2023-01-05T07:16:46;27.75;;;4.95;;
54430;SDS011;40342;52.998;5.862;2023-01-05T07:19:11;26.23;;;6.20;;
54430;SDS011;40342;52.998;5.862;2023-01-05T07:21:37;29.75;;;5.30;;
54430;SDS011;40342;52.998;5.862;2023-01-05T07:24:03;26.70;;;5.43;;
54430;SDS011;40342;52.998;5.862;2023-01-05T07:26:28;35.08;;;5.70;;
54430;SDS011;40342;52.998;5.862;2023-01-05T07:28:54;34.58;;;6.07;;
54430;SDS011;40342;52.998;5.862;2023-01-05T07:31:20;29.90;;;5.25;;
54430;SDS011;40342;52.998;5.862;2023-01-05T07:33:45;27.17;;;5.07;;
54430;SDS011;40342;52.998;5.862;2023-01-05T07:36:11;28.48;;;6.05;;
54430;SDS011;40342;52.998;5.862;2023-01-05T07:38:37;36.42;;;5.68;;
54430;SDS011;40342;52.998;5.862;2023-01-05T07:41:03;35.78;;;5.55;;
54430;SDS011;40342;52.998;5.862;2023-01-05T07:43:28;30.02;;;5.63;;
54430;SDS011;40342;52.998;5.862;2023-01-05T07:45:57;28.73;;;4.82;;
54430;SDS011;40342;52.998;5.862;2023-01-05T07:48:23;30.08;;;5.10;;
54430;SDS011;40342;52.998;5.862;2023-01-05T07:50:49;26.05;;;5.18;;
54430;SDS011;40342;52.998;5.862;2023-01-05T07:53:15;25.77;;;5.13;;
54430;SDS011;40342;52.998;5.862;2023-01-05T07:55:41;31.77;;;5.93;;
54430;SDS011;40342;52.998;5.862;2023-01-05T07:58:07;35.67;;;5.00;;
54430;SDS011;40342;52.998;5.862;2023-01-05T08:00:32;27.08;;;5.43;;
54430;SDS011;40342;52.998;5.862;2023-01-05T08:02:58;33.70;;;6.97;;
54430;SDS011;40342;52.998;5.862;2023-01-05T08:05:23;32.88;;;6.75;;
54430;SDS011;40342;52.998;5.862;2023-01-05T08:07:54;28.77;;;5.82;;
54430;SDS011;40342;52.998;5.862;2023-01-05T08:10:19;34.13;;;5.45;;
54430;SDS011;40342;52.998;5.862;2023-01-05T08:12:54;26.95;;;5.18;;
54430;SDS011;40342;52.998;5.862;2023-01-05T08:15:43;30.50;;;5.32;;
54430;SDS011;40342;52.998;5.862;2023-01-05T08:18:08;32.72;;;5.93;;
54430;SDS011;40342;52.998;5.862;2023-01-05T08:20:34;28.15;;;5.35;;
54430;SDS011;40342;52.998;5.862;2023-01-05T08:23:00;31.55;;;5.10;;
54430;SDS011;40342;52.998;5.862;2023-01-05T08:25:25;28.40;;;6.28;;
54430;SDS011;40342;52.998;5.862;2023-01-05T08:27:52;36.83;;;6.38;;
54430;SDS011;40342;52.998;5.862;2023-01-05T08:30:17;33.03;;;6.13;;
54430;SDS011;40342;52.998;5.862;2023-01-05T08:32:43;29.25;;;6.00;;
54430;SDS011;40342;52.998;5.862;2023-01-05T08:35:09;31.58;;;6.18;;
54430;SDS011;40342;52.998;5.862;2023-01-05T08:37:34;32.58;;;5.90;;
54430;SDS011;40342;52.998;5.862;2023-01-05T08:40:00;22.42;;;5.25;;
54430;SDS011;40342;52.998;5.862;2023-01-05T08:42:26;32.47;;;5.78;;
54430;SDS011;40342;52.998;5.862;2023-01-05T08:44:52;31.55;;;5.43;;
54430;SDS011;40342;52.998;5.862;2023-01-05T08:47:17;32.42;;;6.15;;
54430;SDS011;40342;52.998;5.862;2023-01-05T08:49:43;31.48;;;5.68;;
54430;SDS011;40342;52.998;5.862;2023-01-05T08:52:08;25.92;;;5.05;;
54430;SDS011;40342;52.998;5.862;2023-01-05T08:54:34;27.58;;;4.45;;
54430;SDS011;40342;52.998;5.862;2023-01-05T08:56:59;31.45;;;5.97;;
54430;SDS011;40342;52.998;5.862;2023-01-05T08:59:25;29.02;;;5.15;;
54430;SDS011;40342;52.998;5.862;2023-01-05T09:01:51;31.42;;;5.15;;
54430;SDS011;40342;52.998;5.862;2023-01-05T09:04:16;28.85;;;5.60;;
54430;SDS011;40342;52.998;5.862;2023-01-05T09:06:42;29.05;;;5.82;;
54430;SDS011;40342;52.998;5.862;2023-01-05T09:09:07;30.80;;;5.57;;
54430;SDS011;40342;52.998;5.862;2023-01-05T09:11:33;31.58;;;4.95;;
54430;SDS011;40342;52.998;5.862;2023-01-05T09:14:00;30.48;;;5.65;;
54430;SDS011;40342;52.998;5.862;2023-01-05T09:16:27;28.13;;;4.63;;
54430;SDS011;40342;52.998;5.862;2023-01-05T09:18:56;31.73;;;5.97;;
54430;SDS011;40342;52.998;5.862;2023-01-05T09:21:22;34.78;;;5.95;;
54430;SDS011;40342;52.998;5.862;2023-01-05T09:23:48;37.97;;;5.80;;
54430;SDS011;40342;52.998;5.862;2023-01-05T09:26:14;30.95;;;5.57;;
54430;SDS011;40342;52.998;5.862;2023-01-05T09:28:40;28.65;;;5.28;;
54430;SDS011;40342;52.998;5.862;2023-01-05T09:33:32;28.02;;;4.82;;
54430;SDS011;40342;52.998;5.862;2023-01-05T09:35:58;33.03;;;5.55;;
54430;SDS011;40342;52.998;5.862;2023-01-05T09:38:23;29.15;;;5.07;;
54430;SDS011;40342;52.998;5.862;2023-01-05T09:40:50;27.70;;;4.90;;
54430;SDS011;40342;52.998;5.862;2023-01-05T09:43:30;24.17;;;5.07;;
54430;SDS011;40342;52.998;5.862;2023-01-05T09:46:00;28.35;;;5.40;;
54430;SDS011;40342;52.998;5.862;2023-01-05T09:48:29;24.80;;;4.32;;
54430;SDS011;40342;52.998;5.862;2023-01-05T09:51:02;30.38;;;5.15;;
54430;SDS011;40342;52.998;5.862;2023-01-05T09:53:28;29.77;;;5.20;;
54430;SDS011;40342;52.998;5.862;2023-01-05T09:55:54;23.27;;;4.45;;
54430;SDS011;40342;52.998;5.862;2023-01-05T09:58:22;28.15;;;5.20;;
54430;SDS011;40342;52.998;5.862;2023-01-05T10:00:57;24.65;;;4.30;;
54430;SDS011;40342;52.998;5.862;2023-01-05T10:03:46;22.42;;;4.43;;
54430;SDS011;40342;52.998;5.862;2023-01-05T10:06:25;26.02;;;4.57;;
54430;SDS011;40342;52.998;5.862;2023-01-05T10:08:53;20.92;;;4.03;;
54430;SDS011;40342;52.998;5.862;2023-01-05T10:11:30;18.05;;;3.97;;
54430;SDS011;40342;52.998;5.862;2023-01-05T10:14:27;23.05;;;4.70;;
54430;SDS011;40342;52.998;5.862;2023-01-05T10:16:57;29.58;;;4.80;;
54430;SDS011;40342;52.998;5.862;2023-01-05T10:19:23;24.83;;;4.00;;
54430;SDS011;40342;52.998;5.862;2023-01-05T10:22:02;23.73;;;4.65;;
54430;SDS011;40342;52.998;5.862;2023-01-05T10:24:56;27.80;;;5.25;;
54430;SDS011;40342;52.998;5.862;2023-01-05T10:27:29;33.03;;;6.10;;
54430;SDS011;40342;52.998;5.862;2023-01-05T10:35:33;29.00;;;5.47;;
54430;SDS011;40342;52.998;5.862;2023-01-05T10:38:18;30.52;;;4.85;;
54430;SDS011;40342;52.998;5.862;2023-01-05T10:40:59;30.77;;;5.57;;
54430;SDS011;40342;52.998;5.862;2023-01-05T10:44:05;27.23;;;5.25;;
54430;SDS011;40342;52.998;5.862;2023-01-05T10:46:47;25.10;;;5.13;;
54430;SDS011;40342;52.998;5.862;2023-01-05T10:49:23;31.63;;;5.93;;
54430;SDS011;40342;52.998;5.862;2023-01-05T10:51:51;29.98;;;5.30;;
54430;SDS011;40342;52.998;5.862;2023-01-05T10:54:31;25.13;;;4.70;;
54430;SDS011;40342;52.998;5.862;2023-01-05T11:02:41;25.20;;;4.22;;
54430;SDS011;40342;52.998;5.862;2023-01-05T11:08:00;28.80;;;4.97;;
54430;SDS011;40342;52.998;5.862;2023-01-05T11:10:35;26.35;;;4.53;;
54430;SDS011;40342;52.998;5.862;2023-01-05T11:15:39;30.20;;;4.45;;
54430;SDS011;40342;52.998;5.862;2023-01-05T11:18:23;25.83;;;4.43;;
54430;SDS011;40342;52.998;5.862;2023-01-05T11:21:15;24.30;;;4.60;;
54430;SDS011;40342;52.998;5.862;2023-01-05T11:26:17;20.98;;;4.45;;
54430;SDS011;40342;52.998;5.862;2023-01-05T11:31:43;29.85;;;5.13;;
54430;SDS011;40342;52.998;5.862;2023-01-05T11:42:04;25.50;;;4.13;;
54430;SDS011;40342;52.998;5.862;2023-01-05T11:47:39;27.05;;;4.68;;
54430;SDS011;40342;52.998;5.862;2023-01-05T11:52:39;25.45;;;4.82;;
54430;SDS011;40342;52.998;5.862;2023-01-05T11:57:44;25.38;;;5.10;;
54430;SDS011;40342;52.998;5.862;2023-01-05T12:00:23;35.70;;;5.55;;
54430;SDS011;40342;52.998;5.862;2023-01-05T12:05:22;32.13;;;5.90;;
54430;SDS011;40342;52.998;5.862;2023-01-05T12:08:00;27.02;;;5.20;;
54430;SDS011;40342;52.998;5.862;2023-01-05T12:10:50;36.55;;;6.55;;
54430;SDS011;40342;52.998;5.862;2023-01-05T12:19:21;35.10;;;5.63;;
54430;SDS011;40342;52.998;5.862;2023-01-05T12:21:57;30.77;;;5.30;;
54430;SDS011;40342;52.998;5.862;2023-01-05T12:25:00;35.50;;;5.55;;
54430;SDS011;40342;52.998;5.862;2023-01-05T12:27:36;33.97;;;6.05;;
54430;SDS011;40342;52.998;5.862;2023-01-05T12:30:33;31.40;;;5.20;;
54430;SDS011;40342;52.998;5.862;2023-01-05T12:33:19;33.60;;;6.65;;
54430;SDS011;40342;52.998;5.862;2023-01-05T12:39:04;32.67;;;6.10;;
54430;SDS011;40342;52.998;5.862;2023-01-05T12:41:50;31.42;;;6.00;;
54430;SDS011;40342;52.998;5.862;2023-01-05T12:50:18;29.35;;;5.07;;
54430;SDS011;40342;52.998;5.862;2023-01-05T12:52:46;30.60;;;5.78;;
54430;SDS011;40342;52.998;5.862;2023-01-05T12:58:02;33.75;;;5.88;;
54430;SDS011;40342;52.998;5.862;2023-01-05T13:00:33;38.22;;;6.07;;
54430;SDS011;40342;52.998;5.862;2023-01-05T13:03:11;33.10;;;5.95;;
54430;SDS011;40342;52.998;5.862;2023-01-05T13:06:02;32.15;;;5.85;;
54430;SDS011;40342;52.998;5.862;2023-01-05T13:08:42;34.65;;;5.95;;
54430;SDS011;40342;52.998;5.862;2023-01-05T13:11:30;32.40;;;5.78;;
54430;SDS011;40342;52.998;5.862;2023-01-05T13:16:40;28.20;;;5.30;;
54430;SDS011;40342;52.998;5.862;2023-01-05T13:22:04;32.67;;;6.25;;
54430;SDS011;40342;52.998;5.862;2023-01-05T13:24:37;28.88;;;5.53;;
54430;SDS011;40342;52.998;5.862;2023-01-05T13:27:10;36.05;;;5.68;;
54430;SDS011;40342;52.998;5.862;2023-01-05T13:29:40;32.80;;;5.35;;
54430;SDS011;40342;52.998;5.862;2023-01-05T13:32:14;32.92;;;6.32;;
54430;SDS011;40342;52.998;5.862;2023-01-05T13:54:08;32.45;;;6.00;;
54430;SDS011;40342;52.998;5.862;2023-01-05T13:56:41;32.00;;;5.60;;
54430;SDS011;40342;52.998;5.862;2023-01-05T14:01:45;33.25;;;5.57;;
54430;SDS011;40342;52.998;5.862;2023-01-05T14:04:26;31.48;;;5.45;;
54430;SDS011;40342;52.998;5.862;2023-01-05T14:06:55;29.85;;;5.85;;
54430;SDS011;40342;52.998;5.862;2023-01-05T14:26:05;27.73;;;5.60;;
54430;SDS011;40342;52.998;5.862;2023-01-05T14:33:52;35.53;;;6.47;;
54430;SDS011;40342;52.998;5.862;2023-01-05T14:36:30;35.70;;;6.45;;
54430;SDS011;40342;52.998;5.862;2023-01-05T14:38:58;33.85;;;6.13;;
54430;SDS011;40342;52.998;5.862;2023-01-05T14:41:26;30.38;;;6.32;;
54430;SDS011;40342;52.998;5.862;2023-01-05T14:43:56;30.05;;;6.05;;
54430;SDS011;40342;52.998;5.862;2023-01-05T14:48:59;35.50;;;5.60;;
54430;SDS011;40342;52.998;5.862;2023-01-05T14:51:29;30.00;;;5.57;;
54430;SDS011;40342;52.998;5.862;2023-01-05T14:53:58;31.45;;;5.53;;
54430;SDS011;40342;52.998;5.862;2023-01-05T14:56:31;30.60;;;6.43;;
54430;SDS011;40342;52.998;5.862;2023-01-05T14:59:15;31.50;;;5.53;;
54430;SDS011;40342;52.998;5.862;2023-01-05T15:04:17;39.72;;;6.03;;
54430;SDS011;40342;52.998;5.862;2023-01-05T15:13:03;42.35;;;6.88;;
54430;SDS011;40342;52.998;5.862;2023-01-05T15:15:48;32.08;;;5.82;;
54430;SDS011;40342;52.998;5.862;2023-01-05T15:24:05;31.52;;;6.45;;
54430;SDS011;40342;52.998;5.862;2023-01-05T15:27:01;30.80;;;6.47;;
54430;SDS011;40342;52.998;5.862;2023-01-05T15:32:35;27.15;;;5.10;;
54430;SDS011;40342;52.998;5.862;2023-01-05T15:35:11;35.83;;;6.13;;
54430;SDS011;40342;52.998;5.862;2023-01-05T15:37:41;37.20;;;6.47;;
54430;SDS011;40342;52.998;5.862;2023-01-05T15:42:45;36.83;;;5.78;;
54430;SDS011;40342;52.998;5.862;2023-01-05T15:45:32;28.23;;;6.05;;
54430;SDS011;40342;52.998;5.862;2023-01-05T15:48:04;33.10;;;6.85;;
54430;SDS011;40342;52.998;5.862;2023-01-05T15:50:37;30.70;;;6.00;;
54430;SDS011;40342;52.998;5.862;2023-01-05T15:53:25;36.45;;;6.65;;
54430;SDS011;40342;52.998;5.862;2023-01-05T15:55:57;34.47;;;6.80;;
54430;SDS011;40342;52.998;5.862;2023-01-05T15:58:24;35.92;;;6.70;;
54430;SDS011;40342;52.998;5.862;2023-01-05T16:00:58;37.30;;;7.30;;
54430;SDS011;40342;52.998;5.862;2023-01-05T16:03:28;32.97;;;5.70;;
54430;SDS011;40342;52.998;5.862;2023-01-05T16:06:05;31.25;;;6.32;;
54430;SDS011;40342;52.998;5.862;2023-01-05T16:08:42;31.20;;;6.47;;
54430;SDS011;40342;52.998;5.862;2023-01-05T16:11:11;29.50;;;4.97;;
54430;SDS011;40342;52.998;5.862;2023-01-05T16:13:57;31.30;;;5.88;;
54430;SDS011;40342;52.998;5.862;2023-01-05T16:16:34;29.42;;;5.28;;
54430;SDS011;40342;52.998;5.862;2023-01-05T16:22:13;27.05;;;6.63;;
54430;SDS011;40342;52.998;5.862;2023-01-05T16:27:27;29.52;;;6.28;;
54430;SDS011;40342;52.998;5.862;2023-01-05T16:29:53;27.63;;;5.78;;
54430;SDS011;40342;52.998;5.862;2023-01-05T16:32:37;38.53;;;6.95;;
54430;SDS011;40342;52.998;5.862;2023-01-05T16:40:32;32.55;;;7.90;;
54430;SDS011;40342;52.998;5.862;2023-01-05T16:42:59;32.53;;;7.40;;
54430;SDS011;40342;52.998;5.862;2023-01-05T16:45:26;32.92;;;7.47;;
54430;SDS011;40342;52.998;5.862;2023-01-05T16:47:56;43.35;;;7.03;;
54430;SDS011;40342;52.998;5.862;2023-01-05T16:53:04;35.50;;;7.35;;
54430;SDS011;40342;52.998;5.862;2023-01-05T16:55:35;43.53;;;7.68;;
54430;SDS011;40342;52.998;5.862;2023-01-05T16:58:03;42.78;;;7.32;;
54430;SDS011;40342;52.998;5.862;2023-01-05T17:00:49;44.22;;;9.38;;
54430;SDS011;40342;52.998;5.862;2023-01-05T17:03:28;44.63;;;8.43;;
54430;SDS011;40342;52.998;5.862;2023-01-05T17:05:56;41.92;;;9.13;;
54430;SDS011;40342;52.998;5.862;2023-01-05T17:08:23;57.50;;;9.95;;
54430;SDS011;40342;52.998;5.862;2023-01-05T17:10:52;46.42;;;7.75;;
54430;SDS011;40342;52.998;5.862;2023-01-05T17:13:20;59.70;;;9.50;;
54430;SDS011;40342;52.998;5.862;2023-01-05T17:15:49;50.47;;;9.23;;
54430;SDS011;40342;52.998;5.862;2023-01-05T17:18:23;48.15;;;8.63;;
54430;SDS011;40342;52.998;5.862;2023-01-05T17:20:52;51.90;;;9.73;;
54430;SDS011;40342;52.998;5.862;2023-01-05T17:23:23;54.90;;;9.48;;
54430;SDS011;40342;52.998;5.862;2023-01-05T17:25:55;53.85;;;9.50;;
54430;SDS011;40342;52.998;5.862;2023-01-05T17:28:23;48.95;;;9.90;;
54430;SDS011;40342;52.998;5.862;2023-01-05T17:30:51;62.38;;;11.35;;
54430;SDS011;40342;52.998;5.862;2023-01-05T17:33:16;50.92;;;9.25;;
54430;SDS011;40342;52.998;5.862;2023-01-05T17:35:42;51.65;;;8.82;;